sensor_id;sensor_type;location;lat;lon;timestamp;P1;durP1;ratioP1;P2;durP2;ratioP2
50757;SDS011;36732;47.980;11.652;2023-05-02T00:02:05;0.95;;;0.73;;
50757;SDS011;36732;47.980;11.652;2023-05-02T00:04:31;0.80;;;0.80;;
50757;SDS011;36732;47.980;11.652;2023-05-02T00:06:57;0.80;;;0.80;;
50757;SDS011;36732;47.980;11.652;2023-05-02T00:09:23;1.00;;;0.90;;
50757;SDS011;36732;47.980;11.652;2023-05-02T00:11:48;1.42;;;0.85;;
50757;SDS011;36732;47.980;11.652;2023-05-02T00:14:14;0.88;;;0.80;;
50757;SDS011;36732;47.980;11.652;2023-05-02T00:16:40;1.00;;;0.90;;
50757;SDS011;36732;47.980;11.652;2023-05-02T00:19:05;0.77;;;0.77;;
50757;SDS011;36732;47.980;11.652;2023-05-02T00:21:31;0.80;;;0.80;;
50757;SDS011;36732;47.980;11.652;2023-05-02T00:23:57;1.40;;;0.90;;
50757;SDS011;36732;47.980;11.652;2023-05-02T00:26:24;1.33;;;0.90;;
50757;SDS011;36732;47.980;11.652;2023-05-02T00:28:51;1.25;;;0.98;;
50757;SDS011;36732;47.980;11.652;2023-05-02T00:31:16;1.08;;;0.98;;
50757;SDS011;36732;47.980;11.652;2023-05-02T00:33:42;2.60;;;1.05;;
50757;SDS011;36732;47.980;11.652;2023-05-02T00:36:14;0.90;;;0.85;;
50757;SDS011;36732;47.980;11.652;2023-05-02T00:38:42;0.88;;;0.75;;
50757;SDS011;36732;47.980;11.652;2023-05-02T00:41:08;1.08;;;0.98;;
50757;SDS011;36732;47.980;11.652;2023-05-02T00:43:33;0.80;;;0.80;;
50757;SDS011;36732;47.980;11.652;2023-05-02T00:46:00;1.67;;;0.88;;
50757;SDS011;36732;47.980;11.652;2023-05-02T00:48:26;0.68;;;0.68;;
50757;SDS011;36732;47.980;11.652;2023-05-02T00:50:52;1.20;;;1.10;;
50757;SDS011;36732;47.980;11.652;2023-05-02T00:53:17;0.85;;;0.85;;
50757;SDS011;36732;47.980;11.652;2023-05-02T00:55:43;1.42;;;1.05;;
50757;SDS011;36732;47.980;11.652;2023-05-02T00:58:13;0.80;;;0.80;;
50757;SDS011;36732;47.980;11.652;2023-05-02T01:06:27;1.85;;;1.05;;
50757;SDS011;36732;47.980;11.652;2023-05-02T01:14:55;0.98;;;0.77;;
50757;SDS011;36732;47.980;11.652;2023-05-02T01:17:27;0.80;;;0.80;;
50757;SDS011;36732;47.980;11.652;2023-05-02T01:19:57;0.77;;;0.77;;
50757;SDS011;36732;47.980;11.652;2023-05-02T01:22:28;0.98;;;0.85;;
50757;SDS011;36732;47.980;11.652;2023-05-02T01:25:07;0.98;;;0.90;;
50757;SDS011;36732;47.980;11.652;2023-05-02T01:30:58;1.00;;;0.90;;
50757;SDS011;36732;47.980;11.652;2023-05-02T01:33:25;0.70;;;0.70;;
50757;SDS011;36732;47.980;11.652;2023-05-02T01:35:54;1.85;;;1.35;;
50757;SDS011;36732;47.980;11.652;2023-05-02T01:38:21;1.88;;;1.08;;
50757;SDS011;36732;47.980;11.652;2023-05-02T01:40:49;1.10;;;1.00;;
50757;SDS011;36732;47.980;11.652;2023-05-02T01:43:17;1.13;;;0.82;;
50757;SDS011;36732;47.980;11.652;2023-05-02T01:45:44;0.85;;;0.85;;
50757;SDS011;36732;47.980;11.652;2023-05-02T01:48:13;1.30;;;1.10;;
50757;SDS011;36732;47.980;11.652;2023-05-02T01:50:40;1.13;;;0.90;;
50757;SDS011;36732;47.980;11.652;2023-05-02T01:53:09;1.45;;;1.00;;
50757;SDS011;36732;47.980;11.652;2023-05-02T01:55:37;1.88;;;1.00;;
50757;SDS011;36732;47.980;11.652;2023-05-02T01:58:09;1.08;;;1.00;;
50757;SDS011;36732;47.980;11.652;2023-05-02T02:00:36;0.98;;;0.75;;
50757;SDS011;36732;47.980;11.652;2023-05-02T02:03:04;1.85;;;1.15;;
50757;SDS011;36732;47.980;11.652;2023-05-02T02:05:32;1.00;;;0.90;;
50757;SDS011;36732;47.980;11.652;2023-05-02T02:07:59;0.85;;;0.82;;
50757;SDS011;36732;47.980;11.652;2023-05-02T02:10:25;1.27;;;1.13;;
50757;SDS011;36732;47.980;11.652;2023-05-02T02:12:58;1.75;;;0.75;;
50757;SDS011;36732;47.980;11.652;2023-05-02T02:15:32;0.80;;;0.80;;
50757;SDS011;36732;47.980;11.652;2023-05-02T02:18:01;1.80;;;1.33;;
50757;SDS011;36732;47.980;11.652;2023-05-02T02:20:35;1.40;;;0.98;;
50757;SDS011;36732;47.980;11.652;2023-05-02T02:23:04;1.35;;;1.25;;
50757;SDS011;36732;47.980;11.652;2023-05-02T02:25:32;1.75;;;1.00;;
50757;SDS011;36732;47.980;11.652;2023-05-02T02:27:59;22.98;;;18.80;;
50757;SDS011;36732;47.980;11.652;2023-05-02T02:30:25;21.05;;;17.05;;
50757;SDS011;36732;47.980;11.652;2023-05-02T02:32:51;9.90;;;8.27;;
50757;SDS011;36732;47.980;11.652;2023-05-02T02:35:17;3.22;;;2.92;;
50757;SDS011;36732;47.980;11.652;2023-05-02T02:37:46;1.65;;;1.40;;
50757;SDS011;36732;47.980;11.652;2023-05-02T02:40:22;1.90;;;1.20;;
50757;SDS011;36732;47.980;11.652;2023-05-02T02:42:54;1.15;;;1.05;;
50757;SDS011;36732;47.980;11.652;2023-05-02T02:46:01;1.27;;;1.17;;
50757;SDS011;36732;47.980;11.652;2023-05-02T02:51:38;0.88;;;0.88;;
50757;SDS011;36732;47.980;11.652;2023-05-02T02:54:17;1.30;;;0.90;;
50757;SDS011;36732;47.980;11.652;2023-05-02T02:56:57;1.33;;;0.98;;
50757;SDS011;36732;47.980;11.652;2023-05-02T03:00:12;1.20;;;1.08;;
50757;SDS011;36732;47.980;11.652;2023-05-02T03:02:46;0.95;;;0.82;;
50757;SDS011;36732;47.980;11.652;2023-05-02T03:05:13;1.10;;;1.00;;
50757;SDS011;36732;47.980;11.652;2023-05-02T03:07:39;1.05;;;0.95;;
50757;SDS011;36732;47.980;11.652;2023-05-02T03:10:05;1.42;;;0.73;;
50757;SDS011;36732;47.980;11.652;2023-05-02T03:12:31;1.25;;;0.80;;
50757;SDS011;36732;47.980;11.652;2023-05-02T03:15:11;2.25;;;0.80;;
50757;SDS011;36732;47.980;11.652;2023-05-02T03:17:49;0.80;;;0.80;;
50757;SDS011;36732;47.980;11.652;2023-05-02T03:20:15;1.48;;;1.05;;
50757;SDS011;36732;47.980;11.652;2023-05-02T03:22:40;0.70;;;0.70;;
50757;SDS011;36732;47.980;11.652;2023-05-02T03:25:06;1.08;;;0.98;;
50757;SDS011;36732;47.980;11.652;2023-05-02T03:27:32;2.22;;;0.90;;
50757;SDS011;36732;47.980;11.652;2023-05-02T03:29:58;1.33;;;1.23;;
50757;SDS011;36732;47.980;11.652;2023-05-02T03:32:24;2.15;;;1.00;;
50757;SDS011;36732;47.980;11.652;2023-05-02T03:34:50;0.80;;;0.80;;
50757;SDS011;36732;47.980;11.652;2023-05-02T03:37:16;0.80;;;0.80;;
50757;SDS011;36732;47.980;11.652;2023-05-02T03:39:42;0.73;;;0.73;;
50757;SDS011;36732;47.980;11.652;2023-05-02T03:42:08;1.10;;;1.00;;
50757;SDS011;36732;47.980;11.652;2023-05-02T03:44:34;0.73;;;0.70;;
50757;SDS011;36732;47.980;11.652;2023-05-02T03:47:00;0.80;;;0.80;;
50757;SDS011;36732;47.980;11.652;2023-05-02T03:49:26;0.90;;;0.90;;
50757;SDS011;36732;47.980;11.652;2023-05-02T03:51:52;0.75;;;0.75;;
50757;SDS011;36732;47.980;11.652;2023-05-02T03:54:18;1.42;;;0.80;;
50757;SDS011;36732;47.980;11.652;2023-05-02T03:56:43;1.20;;;0.63;;
50757;SDS011;36732;47.980;11.652;2023-05-02T03:59:09;1.27;;;1.00;;
50757;SDS011;36732;47.980;11.652;2023-05-02T04:01:35;0.60;;;0.60;;
50757;SDS011;36732;47.980;11.652;2023-05-02T04:04:01;1.10;;;1.00;;
50757;SDS011;36732;47.980;11.652;2023-05-02T04:06:27;2.08;;;0.80;;
50757;SDS011;36732;47.980;11.652;2023-05-02T04:08:53;0.70;;;0.70;;
50757;SDS011;36732;47.980;11.652;2023-05-02T04:11:18;0.77;;;0.70;;
50757;SDS011;36732;47.980;11.652;2023-05-02T04:13:44;0.75;;;0.75;;
50757;SDS011;36732;47.980;11.652;2023-05-02T04:16:10;0.95;;;0.60;;
50757;SDS011;36732;47.980;11.652;2023-05-02T04:18:35;1.08;;;0.90;;
50757;SDS011;36732;47.980;11.652;2023-05-02T04:21:01;0.82;;;0.82;;
50757;SDS011;36732;47.980;11.652;2023-05-02T04:23:27;0.70;;;0.70;;
50757;SDS011;36732;47.980;11.652;2023-05-02T04:25:53;0.93;;;0.90;;
50757;SDS011;36732;47.980;11.652;2023-05-02T04:28:20;1.10;;;0.80;;
50757;SDS011;36732;47.980;11.652;2023-05-02T04:30:47;0.90;;;0.70;;
50757;SDS011;36732;47.980;11.652;2023-05-02T04:33:13;0.90;;;0.68;;
50757;SDS011;36732;47.980;11.652;2023-05-02T04:35:40;0.90;;;0.60;;
50757;SDS011;36732;47.980;11.652;2023-05-02T04:38:06;0.73;;;0.70;;
50757;SDS011;36732;47.980;11.652;2023-05-02T04:40:32;1.95;;;0.73;;
50757;SDS011;36732;47.980;11.652;2023-05-02T04:42:58;0.70;;;0.70;;
50757;SDS011;36732;47.980;11.652;2023-05-02T04:45:24;1.00;;;0.90;;
50757;SDS011;36732;47.980;11.652;2023-05-02T04:47:50;1.88;;;0.65;;
50757;SDS011;36732;47.980;11.652;2023-05-02T04:50:16;0.70;;;0.70;;
50757;SDS011;36732;47.980;11.652;2023-05-02T04:52:41;2.28;;;0.80;;
50757;SDS011;36732;47.980;11.652;2023-05-02T04:55:07;2.08;;;0.90;;
50757;SDS011;36732;47.980;11.652;2023-05-02T04:57:33;0.75;;;0.70;;
50757;SDS011;36732;47.980;11.652;2023-05-02T04:59:59;1.23;;;1.08;;
50757;SDS011;36732;47.980;11.652;2023-05-02T05:02:24;1.60;;;1.00;;
50757;SDS011;36732;47.980;11.652;2023-05-02T05:04:51;1.42;;;1.33;;
50757;SDS011;36732;47.980;11.652;2023-05-02T05:07:16;0.85;;;0.75;;
50757;SDS011;36732;47.980;11.652;2023-05-02T05:09:42;0.90;;;0.90;;
50757;SDS011;36732;47.980;11.652;2023-05-02T05:12:08;1.30;;;0.75;;
50757;SDS011;36732;47.980;11.652;2023-05-02T05:14:34;0.80;;;0.80;;
50757;SDS011;36732;47.980;11.652;2023-05-02T05:16:59;0.93;;;0.63;;
50757;SDS011;36732;47.980;11.652;2023-05-02T05:19:25;1.13;;;0.80;;
50757;SDS011;36732;47.980;11.652;2023-05-02T05:21:51;1.13;;;0.60;;
50757;SDS011;36732;47.980;11.652;2023-05-02T05:24:17;1.55;;;0.93;;
50757;SDS011;36732;47.980;11.652;2023-05-02T05:26:43;1.08;;;0.98;;
50757;SDS011;36732;47.980;11.652;2023-05-02T05:29:09;0.85;;;0.85;;
50757;SDS011;36732;47.980;11.652;2023-05-02T05:31:35;0.95;;;0.90;;
50757;SDS011;36732;47.980;11.652;2023-05-02T05:34:01;1.00;;;0.90;;
50757;SDS011;36732;47.980;11.652;2023-05-02T05:36:28;1.02;;;0.82;;
50757;SDS011;36732;47.980;11.652;2023-05-02T05:38:55;2.15;;;0.65;;
50757;SDS011;36732;47.980;11.652;2023-05-02T05:41:21;1.38;;;0.82;;
50757;SDS011;36732;47.980;11.652;2023-05-02T05:43:47;1.92;;;0.80;;
50757;SDS011;36732;47.980;11.652;2023-05-02T05:46:12;0.88;;;0.88;;
50757;SDS011;36732;47.980;11.652;2023-05-02T05:48:38;0.90;;;0.90;;
50757;SDS011;36732;47.980;11.652;2023-05-02T05:51:04;1.05;;;0.77;;
50757;SDS011;36732;47.980;11.652;2023-05-02T05:53:31;1.65;;;1.30;;
50757;SDS011;36732;47.980;11.652;2023-05-02T05:55:57;1.10;;;0.90;;
50757;SDS011;36732;47.980;11.652;2023-05-02T05:58:23;2.00;;;0.93;;
50757;SDS011;36732;47.980;11.652;2023-05-02T06:00:49;1.40;;;1.00;;
50757;SDS011;36732;47.980;11.652;2023-05-02T06:03:16;1.02;;;0.93;;
50757;SDS011;36732;47.980;11.652;2023-05-02T06:05:41;0.93;;;0.90;;
50757;SDS011;36732;47.980;11.652;2023-05-02T06:08:07;0.75;;;0.75;;
50757;SDS011;36732;47.980;11.652;2023-05-02T06:10:33;1.75;;;1.20;;
50757;SDS011;36732;47.980;11.652;2023-05-02T06:12:59;1.23;;;1.05;;
50757;SDS011;36732;47.980;11.652;2023-05-02T06:15:25;1.10;;;1.00;;
50757;SDS011;36732;47.980;11.652;2023-05-02T06:17:50;4.18;;;1.10;;
50757;SDS011;36732;47.980;11.652;2023-05-02T06:20:16;1.52;;;1.17;;
50757;SDS011;36732;47.980;11.652;2023-05-02T06:22:42;1.20;;;1.10;;
50757;SDS011;36732;47.980;11.652;2023-05-02T06:25:08;1.10;;;1.00;;
50757;SDS011;36732;47.980;11.652;2023-05-02T06:27:34;1.08;;;0.98;;
50757;SDS011;36732;47.980;11.652;2023-05-02T06:30:00;1.15;;;1.05;;
50757;SDS011;36732;47.980;11.652;2023-05-02T06:32:29;1.17;;;1.08;;
50757;SDS011;36732;47.980;11.652;2023-05-02T06:34:56;1.30;;;1.20;;
50757;SDS011;36732;47.980;11.652;2023-05-02T06:37:21;1.23;;;1.13;;
50757;SDS011;36732;47.980;11.652;2023-05-02T06:39:47;1.33;;;1.20;;
50757;SDS011;36732;47.980;11.652;2023-05-02T06:42:13;1.45;;;1.35;;
50757;SDS011;36732;47.980;11.652;2023-05-02T06:44:39;1.45;;;1.33;;
50757;SDS011;36732;47.980;11.652;2023-05-02T06:47:05;1.50;;;1.20;;
50757;SDS011;36732;47.980;11.652;2023-05-02T06:49:31;1.50;;;1.40;;
50757;SDS011;36732;47.980;11.652;2023-05-02T06:51:57;1.88;;;1.60;;
50757;SDS011;36732;47.980;11.652;2023-05-02T06:54:23;1.20;;;1.10;;
50757;SDS011;36732;47.980;11.652;2023-05-02T06:56:50;3.35;;;1.75;;
50757;SDS011;36732;47.980;11.652;2023-05-02T06:59:16;1.63;;;1.50;;
50757;SDS011;36732;47.980;11.652;2023-05-02T07:01:44;1.75;;;1.65;;
50757;SDS011;36732;47.980;11.652;2023-05-02T07:04:10;1.60;;;1.50;;
50757;SDS011;36732;47.980;11.652;2023-05-02T07:06:36;1.88;;;1.75;;
50757;SDS011;36732;47.980;11.652;2023-05-02T07:09:02;1.70;;;1.55;;
50757;SDS011;36732;47.980;11.652;2023-05-02T07:11:27;3.53;;;1.75;;
50757;SDS011;36732;47.980;11.652;2023-05-02T07:13:53;1.77;;;1.67;;
50757;SDS011;36732;47.980;11.652;2023-05-02T07:16:19;1.63;;;1.52;;
50757;SDS011;36732;47.980;11.652;2023-05-02T07:18:45;2.17;;;1.98;;
50757;SDS011;36732;47.980;11.652;2023-05-02T07:21:11;2.25;;;1.83;;
50757;SDS011;36732;47.980;11.652;2023-05-02T07:23:37;1.60;;;1.40;;
50757;SDS011;36732;47.980;11.652;2023-05-02T07:26:03;2.25;;;1.75;;
50757;SDS011;36732;47.980;11.652;2023-05-02T07:28:32;2.47;;;2.05;;
50757;SDS011;36732;47.980;11.652;2023-05-02T07:30:57;2.17;;;1.98;;
50757;SDS011;36732;47.980;11.652;2023-05-02T07:33:23;1.83;;;1.73;;
50757;SDS011;36732;47.980;11.652;2023-05-02T07:35:49;2.45;;;2.17;;
50757;SDS011;36732;47.980;11.652;2023-05-02T07:38:15;2.30;;;2.10;;
50757;SDS011;36732;47.980;11.652;2023-05-02T07:40:41;2.40;;;2.20;;
50757;SDS011;36732;47.980;11.652;2023-05-02T07:43:07;2.10;;;1.95;;
50757;SDS011;36732;47.980;11.652;2023-05-02T07:45:34;2.35;;;2.15;;
50757;SDS011;36732;47.980;11.652;2023-05-02T07:47:59;5.32;;;2.42;;
50757;SDS011;36732;47.980;11.652;2023-05-02T07:50:25;2.88;;;2.63;;
50757;SDS011;36732;47.980;11.652;2023-05-02T07:52:51;2.20;;;2.00;;
50757;SDS011;36732;47.980;11.652;2023-05-02T07:55:19;2.70;;;2.50;;
50757;SDS011;36732;47.980;11.652;2023-05-02T07:57:45;2.72;;;2.53;;
50757;SDS011;36732;47.980;11.652;2023-05-02T08:00:11;5.40;;;2.67;;
50757;SDS011;36732;47.980;11.652;2023-05-02T08:02:38;4.20;;;2.63;;
50757;SDS011;36732;47.980;11.652;2023-05-02T08:05:05;3.10;;;2.75;;
50757;SDS011;36732;47.980;11.652;2023-05-02T08:07:31;3.22;;;2.88;;
50757;SDS011;36732;47.980;11.652;2023-05-02T08:09:59;2.60;;;2.40;;
50757;SDS011;36732;47.980;11.652;2023-05-02T08:12:25;3.17;;;2.85;;
50757;SDS011;36732;47.980;11.652;2023-05-02T08:14:51;2.60;;;2.40;;
50757;SDS011;36732;47.980;11.652;2023-05-02T08:17:17;3.15;;;2.63;;
50757;SDS011;36732;47.980;11.652;2023-05-02T08:19:43;3.42;;;2.65;;
50757;SDS011;36732;47.980;11.652;2023-05-02T08:22:09;3.97;;;3.28;;
50757;SDS011;36732;47.980;11.652;2023-05-02T08:24:35;3.15;;;2.80;;
50757;SDS011;36732;47.980;11.652;2023-05-02T08:27:00;2.65;;;2.25;;
50757;SDS011;36732;47.980;11.652;2023-05-02T08:29:29;3.00;;;2.67;;
50757;SDS011;36732;47.980;11.652;2023-05-02T08:31:55;2.47;;;2.28;;
50757;SDS011;36732;47.980;11.652;2023-05-02T08:34:21;3.60;;;2.60;;
50757;SDS011;36732;47.980;11.652;2023-05-02T08:36:47;3.00;;;2.67;;
50757;SDS011;36732;47.980;11.652;2023-05-02T08:39:12;3.15;;;2.83;;
50757;SDS011;36732;47.980;11.652;2023-05-02T08:41:38;3.65;;;2.90;;
50757;SDS011;36732;47.980;11.652;2023-05-02T08:44:04;5.35;;;2.45;;
50757;SDS011;36732;47.980;11.652;2023-05-02T08:46:31;3.33;;;3.03;;
50757;SDS011;36732;47.980;11.652;2023-05-02T08:49:00;3.47;;;2.65;;
50757;SDS011;36732;47.980;11.652;2023-05-02T08:51:27;3.15;;;2.85;;
50757;SDS011;36732;47.980;11.652;2023-05-02T08:53:56;7.40;;;2.97;;
50757;SDS011;36732;47.980;11.652;2023-05-02T08:56:22;7.68;;;2.90;;
50757;SDS011;36732;47.980;11.652;2023-05-02T08:58:49;3.45;;;3.00;;
50757;SDS011;36732;47.980;11.652;2023-05-02T09:01:18;3.30;;;3.00;;
50757;SDS011;36732;47.980;11.652;2023-05-02T09:03:48;7.30;;;3.30;;
50757;SDS011;36732;47.980;11.652;2023-05-02T09:06:15;3.83;;;3.30;;
50757;SDS011;36732;47.980;11.652;2023-05-02T09:08:46;3.78;;;3.13;;
50757;SDS011;36732;47.980;11.652;2023-05-02T09:11:13;3.97;;;3.45;;
50757;SDS011;36732;47.980;11.652;2023-05-02T09:13:41;3.97;;;3.58;;
50757;SDS011;36732;47.980;11.652;2023-05-02T09:16:10;3.38;;;3.08;;
50757;SDS011;36732;47.980;11.652;2023-05-02T09:18:47;3.55;;;3.25;;
50757;SDS011;36732;47.980;11.652;2023-05-02T09:21:16;3.95;;;3.63;;
50757;SDS011;36732;47.980;11.652;2023-05-02T09:23:45;3.88;;;3.30;;
50757;SDS011;36732;47.980;11.652;2023-05-02T09:26:28;3.70;;;3.40;;
50757;SDS011;36732;47.980;11.652;2023-05-02T09:28:56;5.68;;;3.60;;
50757;SDS011;36732;47.980;11.652;2023-05-02T09:31:25;3.80;;;3.15;;
50757;SDS011;36732;47.980;11.652;2023-05-02T09:34:08;4.03;;;3.63;;
50757;SDS011;36732;47.980;11.652;2023-05-02T09:36:39;4.90;;;3.53;;
50757;SDS011;36732;47.980;11.652;2023-05-02T09:39:14;3.80;;;2.88;;
50757;SDS011;36732;47.980;11.652;2023-05-02T09:41:43;4.13;;;3.75;;
50757;SDS011;36732;47.980;11.652;2023-05-02T09:44:11;4.63;;;2.88;;
50757;SDS011;36732;47.980;11.652;2023-05-02T09:46:43;3.45;;;3.15;;
50757;SDS011;36732;47.980;11.652;2023-05-02T09:49:10;3.95;;;3.35;;
50757;SDS011;36732;47.980;11.652;2023-05-02T09:51:36;4.35;;;3.83;;
50757;SDS011;36732;47.980;11.652;2023-05-02T09:54:02;5.35;;;4.15;;
50757;SDS011;36732;47.980;11.652;2023-05-02T09:56:28;5.00;;;4.50;;
50757;SDS011;36732;47.980;11.652;2023-05-02T10:01:39;5.10;;;4.63;;
50757;SDS011;36732;47.980;11.652;2023-05-02T10:04:08;4.95;;;3.95;;
50757;SDS011;36732;47.980;11.652;2023-05-02T10:06:40;5.13;;;4.47;;
50757;SDS011;36732;47.980;11.652;2023-05-02T10:09:08;4.55;;;4.15;;
50757;SDS011;36732;47.980;11.652;2023-05-02T10:11:37;5.25;;;4.70;;
50757;SDS011;36732;47.980;11.652;2023-05-02T10:14:09;4.63;;;4.22;;
50757;SDS011;36732;47.980;11.652;2023-05-02T10:16:49;6.35;;;4.68;;
50757;SDS011;36732;47.980;11.652;2023-05-02T10:19:31;4.80;;;4.30;;
50757;SDS011;36732;47.980;11.652;2023-05-02T10:22:03;5.57;;;4.45;;
50757;SDS011;36732;47.980;11.652;2023-05-02T10:24:31;5.25;;;4.15;;
50757;SDS011;36732;47.980;11.652;2023-05-02T10:26:57;4.55;;;4.15;;
50757;SDS011;36732;47.980;11.652;2023-05-02T10:29:25;4.15;;;3.75;;
50757;SDS011;36732;47.980;11.652;2023-05-02T10:31:56;5.10;;;4.32;;
50757;SDS011;36732;47.980;11.652;2023-05-02T10:34:24;7.40;;;4.00;;
50757;SDS011;36732;47.980;11.652;2023-05-02T10:36:51;6.15;;;4.82;;
50757;SDS011;36732;47.980;11.652;2023-05-02T10:39:20;5.20;;;4.53;;
50757;SDS011;36732;47.980;11.652;2023-05-02T10:41:48;10.80;;;4.43;;
50757;SDS011;36732;47.980;11.652;2023-05-02T10:44:17;4.38;;;3.72;;
50757;SDS011;36732;47.980;11.652;2023-05-02T10:46:56;4.63;;;4.18;;
50757;SDS011;36732;47.980;11.652;2023-05-02T10:49:22;5.35;;;4.22;;
50757;SDS011;36732;47.980;11.652;2023-05-02T10:51:51;5.75;;;3.83;;
50757;SDS011;36732;47.980;11.652;2023-05-02T10:54:17;6.53;;;3.95;;
50757;SDS011;36732;47.980;11.652;2023-05-02T11:04:57;4.43;;;4.03;;
50757;SDS011;36732;47.980;11.652;2023-05-02T11:07:30;5.50;;;3.95;;
50757;SDS011;36732;47.980;11.652;2023-05-02T11:12:46;3.58;;;3.28;;
50757;SDS011;36732;47.980;11.652;2023-05-02T11:15:13;4.22;;;3.67;;
50757;SDS011;36732;47.980;11.652;2023-05-02T11:20:31;5.53;;;4.47;;
50757;SDS011;36732;47.980;11.652;2023-05-02T11:25:45;6.20;;;4.05;;
50757;SDS011;36732;47.980;11.652;2023-05-02T11:31:05;3.83;;;3.53;;
50757;SDS011;36732;47.980;11.652;2023-05-02T11:34:02;4.40;;;4.00;;
50757;SDS011;36732;47.980;11.652;2023-05-02T11:36:31;5.43;;;4.18;;
50757;SDS011;36732;47.980;11.652;2023-05-02T11:38:59;4.78;;;4.28;;
50757;SDS011;36732;47.980;11.652;2023-05-02T11:41:39;5.78;;;3.83;;
50757;SDS011;36732;47.980;11.652;2023-05-02T11:44:08;5.88;;;4.05;;
50757;SDS011;36732;47.980;11.652;2023-05-02T11:46:37;4.22;;;3.63;;
50757;SDS011;36732;47.980;11.652;2023-05-02T11:49:04;5.10;;;4.00;;
50757;SDS011;36732;47.980;11.652;2023-05-02T11:51:31;4.70;;;3.92;;
50757;SDS011;36732;47.980;11.652;2023-05-02T11:53:59;5.78;;;4.15;;
50757;SDS011;36732;47.980;11.652;2023-05-02T11:56:25;3.80;;;2.97;;
50757;SDS011;36732;47.980;11.652;2023-05-02T11:59:00;2.88;;;2.40;;
50757;SDS011;36732;47.980;11.652;2023-05-02T12:01:28;2.60;;;2.40;;
50757;SDS011;36732;47.980;11.652;2023-05-02T12:04:27;3.35;;;2.60;;
50757;SDS011;36732;47.980;11.652;2023-05-02T12:06:54;3.63;;;2.40;;
50757;SDS011;36732;47.980;11.652;2023-05-02T12:09:22;4.70;;;2.63;;
50757;SDS011;36732;47.980;11.652;2023-05-02T12:11:52;5.45;;;2.65;;
50757;SDS011;36732;47.980;11.652;2023-05-02T12:14:25;4.88;;;2.70;;
50757;SDS011;36732;47.980;11.652;2023-05-02T12:16:57;5.13;;;2.63;;
50757;SDS011;36732;47.980;11.652;2023-05-02T12:19:23;2.97;;;2.67;;
50757;SDS011;36732;47.980;11.652;2023-05-02T12:21:49;3.33;;;2.63;;
50757;SDS011;36732;47.980;11.652;2023-05-02T12:24:16;2.75;;;2.40;;
50757;SDS011;36732;47.980;11.652;2023-05-02T12:26:42;3.00;;;2.45;;
50757;SDS011;36732;47.980;11.652;2023-05-02T12:29:07;5.78;;;3.45;;
50757;SDS011;36732;47.980;11.652;2023-05-02T12:31:33;4.55;;;2.67;;
50757;SDS011;36732;47.980;11.652;2023-05-02T12:33:59;3.13;;;2.80;;
50757;SDS011;36732;47.980;11.652;2023-05-02T12:36:25;3.33;;;3.03;;
50757;SDS011;36732;47.980;11.652;2023-05-02T12:38:56;3.90;;;3.00;;
50757;SDS011;36732;47.980;11.652;2023-05-02T12:41:30;4.70;;;3.22;;
50757;SDS011;36732;47.980;11.652;2023-05-02T12:44:00;4.07;;;3.13;;
50757;SDS011;36732;47.980;11.652;2023-05-02T12:46:26;5.40;;;3.20;;
50757;SDS011;36732;47.980;11.652;2023-05-02T12:49:02;3.53;;;3.00;;
50757;SDS011;36732;47.980;11.652;2023-05-02T12:51:33;2.95;;;2.67;;
50757;SDS011;36732;47.980;11.652;2023-05-02T12:54:00;4.00;;;2.60;;
50757;SDS011;36732;47.980;11.652;2023-05-02T12:56:26;2.75;;;2.50;;
50757;SDS011;36732;47.980;11.652;2023-05-02T12:58:56;3.67;;;2.90;;
50757;SDS011;36732;47.980;11.652;2023-05-02T13:01:27;3.28;;;2.97;;
50757;SDS011;36732;47.980;11.652;2023-05-02T13:03:53;26.67;;;17.58;;
50757;SDS011;36732;47.980;11.652;2023-05-02T13:06:19;10.63;;;8.30;;
50757;SDS011;36732;47.980;11.652;2023-05-02T13:08:45;6.65;;;5.38;;
50757;SDS011;36732;47.980;11.652;2023-05-02T13:11:10;6.25;;;4.90;;
50757;SDS011;36732;47.980;11.652;2023-05-02T13:13:38;4.20;;;3.80;;
50757;SDS011;36732;47.980;11.652;2023-05-02T13:16:03;4.63;;;3.80;;
50757;SDS011;36732;47.980;11.652;2023-05-02T13:18:29;3.28;;;2.97;;
50757;SDS011;36732;47.980;11.652;2023-05-02T13:20:55;3.72;;;2.63;;
50757;SDS011;36732;47.980;11.652;2023-05-02T13:23:21;3.30;;;2.80;;
50757;SDS011;36732;47.980;11.652;2023-05-02T13:25:46;2.90;;;2.53;;
50757;SDS011;36732;47.980;11.652;2023-05-02T13:28:12;2.47;;;2.20;;
50757;SDS011;36732;47.980;11.652;2023-05-02T13:30:38;2.50;;;2.30;;
50757;SDS011;36732;47.980;11.652;2023-05-02T13:33:04;3.45;;;2.42;;
50757;SDS011;36732;47.980;11.652;2023-05-02T13:35:29;2.55;;;2.10;;
50757;SDS011;36732;47.980;11.652;2023-05-02T13:37:55;2.58;;;2.38;;
50757;SDS011;36732;47.980;11.652;2023-05-02T13:40:21;8.48;;;6.60;;
50757;SDS011;36732;47.980;11.652;2023-05-02T13:42:46;4.97;;;4.47;;
50757;SDS011;36732;47.980;11.652;2023-05-02T13:45:12;3.08;;;2.75;;
50757;SDS011;36732;47.980;11.652;2023-05-02T13:47:38;4.93;;;4.43;;
50757;SDS011;36732;47.980;11.652;2023-05-02T13:50:04;3.90;;;3.50;;
50757;SDS011;36732;47.980;11.652;2023-05-02T13:52:31;2.65;;;2.45;;
50757;SDS011;36732;47.980;11.652;2023-05-02T13:54:57;2.78;;;2.58;;
50757;SDS011;36732;47.980;11.652;2023-05-02T13:57:22;3.40;;;3.10;;
50757;SDS011;36732;47.980;11.652;2023-05-02T13:59:48;2.20;;;1.98;;
50757;SDS011;36732;47.980;11.652;2023-05-02T14:02:14;2.40;;;2.20;;
50757;SDS011;36732;47.980;11.652;2023-05-02T14:04:40;3.45;;;2.25;;
50757;SDS011;36732;47.980;11.652;2023-05-02T14:07:06;2.10;;;1.88;;
50757;SDS011;36732;47.980;11.652;2023-05-02T14:09:32;3.65;;;2.08;;
50757;SDS011;36732;47.980;11.652;2023-05-02T14:11:57;2.88;;;2.42;;
50757;SDS011;36732;47.980;11.652;2023-05-02T14:14:23;2.42;;;2.22;;
50757;SDS011;36732;47.980;11.652;2023-05-02T14:16:49;1.80;;;1.67;;
50757;SDS011;36732;47.980;11.652;2023-05-02T14:19:15;2.03;;;1.80;;
50757;SDS011;36732;47.980;11.652;2023-05-02T14:21:41;2.42;;;2.00;;
50757;SDS011;36732;47.980;11.652;2023-05-02T14:24:06;2.63;;;2.42;;
50757;SDS011;36732;47.980;11.652;2023-05-02T14:26:32;2.10;;;1.90;;
50757;SDS011;36732;47.980;11.652;2023-05-02T14:28:58;1.17;;;1.08;;
50757;SDS011;36732;47.980;11.652;2023-05-02T14:31:24;1.77;;;1.67;;
50757;SDS011;36732;47.980;11.652;2023-05-02T14:33:50;2.22;;;2.03;;
50757;SDS011;36732;47.980;11.652;2023-05-02T14:36:16;2.10;;;1.90;;
50757;SDS011;36732;47.980;11.652;2023-05-02T14:38:41;2.10;;;1.80;;
50757;SDS011;36732;47.980;11.652;2023-05-02T14:41:07;1.90;;;1.70;;
50757;SDS011;36732;47.980;11.652;2023-05-02T14:43:34;1.95;;;1.67;;
50757;SDS011;36732;47.980;11.652;2023-05-02T14:46:00;2.05;;;1.95;;
50757;SDS011;36732;47.980;11.652;2023-05-02T14:48:26;1.75;;;1.58;;
50757;SDS011;36732;47.980;11.652;2023-05-02T14:50:52;1.80;;;1.70;;
50757;SDS011;36732;47.980;11.652;2023-05-02T14:53:19;1.60;;;1.50;;
50757;SDS011;36732;47.980;11.652;2023-05-02T14:55:45;2.60;;;2.33;;
50757;SDS011;36732;47.980;11.652;2023-05-02T14:58:11;2.63;;;2.38;;
50757;SDS011;36732;47.980;11.652;2023-05-02T15:00:36;3.00;;;2.20;;
50757;SDS011;36732;47.980;11.652;2023-05-02T15:03:05;2.35;;;2.10;;
50757;SDS011;36732;47.980;11.652;2023-05-02T15:05:33;2.40;;;1.95;;
50757;SDS011;36732;47.980;11.652;2023-05-02T15:08:00;1.73;;;1.60;;
50757;SDS011;36732;47.980;11.652;2023-05-02T15:10:26;2.30;;;1.40;;
50757;SDS011;36732;47.980;11.652;2023-05-02T15:12:52;2.63;;;1.65;;
50757;SDS011;36732;47.980;11.652;2023-05-02T15:15:18;1.90;;;1.65;;
50757;SDS011;36732;47.980;11.652;2023-05-02T15:17:48;4.63;;;2.33;;